sensor_id;sensor_type;location;lat;lon;timestamp;P1;durP1;ratioP1;P2;durP2;ratioP2
3095;SDS011;1558;42.700;23.360;2022-09-01T00:00:08;17.80;;;16.10;;
3095;SDS011;1558;42.700;23.360;2022-09-01T00:02:39;16.70;;;15.27;;
3095;SDS011;1558;42.700;23.360;2022-09-01T00:05:08;17.20;;;15.33;;
3095;SDS011;1558;42.700;23.360;2022-09-01T00:07:39;18.37;;;15.57;;
3095;SDS011;1558;42.700;23.360;2022-09-01T00:10:07;17.70;;;15.97;;
3095;SDS011;1558;42.700;23.360;2022-09-01T00:12:36;16.43;;;14.93;;
3095;SDS011;1558;42.700;23.360;2022-09-01T00:15:05;15.87;;;14.43;;
3095;SDS011;1558;42.700;23.360;2022-09-01T00:17:35;16.77;;;15.17;;
3095;SDS011;1558;42.700;23.360;2022-09-01T00:20:03;15.67;;;14.27;;
3095;SDS011;1558;42.700;23.360;2022-09-01T00:22:32;17.03;;;15.37;;
3095;SDS011;1558;42.700;23.360;2022-09-01T00:25:01;16.87;;;15.27;;
3095;SDS011;1558;42.700;23.360;2022-09-01T00:27:30;17.03;;;15.50;;
3095;SDS011;1558;42.700;23.360;2022-09-01T00:29:58;16.67;;;14.97;;
3095;SDS011;1558;42.700;23.360;2022-09-01T00:32:27;17.33;;;15.73;;
3095;SDS011;1558;42.700;23.360;2022-09-01T00:34:55;16.50;;;15.07;;
3095;SDS011;1558;42.700;23.360;2022-09-01T00:37:23;17.83;;;16.13;;
3095;SDS011;1558;42.700;23.360;2022-09-01T00:39:51;18.00;;;16.47;;
3095;SDS011;1558;42.700;23.360;2022-09-01T00:42:20;17.97;;;16.43;;
3095;SDS011;1558;42.700;23.360;2022-09-01T00:44:48;17.70;;;15.90;;
3095;SDS011;1558;42.700;23.360;2022-09-01T00:47:16;17.33;;;15.43;;
3095;SDS011;1558;42.700;23.360;2022-09-01T00:49:45;17.17;;;15.43;;
3095;SDS011;1558;42.700;23.360;2022-09-01T00:52:16;17.80;;;16.20;;
3095;SDS011;1558;42.700;23.360;2022-09-01T00:54:48;17.53;;;15.83;;
3095;SDS011;1558;42.700;23.360;2022-09-01T00:57:19;17.13;;;15.73;;
3095;SDS011;1558;42.700;23.360;2022-09-01T00:59:49;17.63;;;16.03;;
3095;SDS011;1558;42.700;23.360;2022-09-01T01:02:21;17.07;;;15.63;;
3095;SDS011;1558;42.700;23.360;2022-09-01T01:04:49;18.23;;;16.43;;
3095;SDS011;1558;42.700;23.360;2022-09-01T01:07:18;17.13;;;15.67;;
3095;SDS011;1558;42.700;23.360;2022-09-01T01:09:48;18.27;;;16.37;;
3095;SDS011;1558;42.700;23.360;2022-09-01T01:12:18;18.50;;;16.30;;
3095;SDS011;1558;42.700;23.360;2022-09-01T01:14:48;18.83;;;16.93;;
3095;SDS011;1558;42.700;23.360;2022-09-01T01:17:17;18.80;;;17.00;;
3095;SDS011;1558;42.700;23.360;2022-09-01T01:19:46;18.93;;;17.17;;
3095;SDS011;1558;42.700;23.360;2022-09-01T01:22:38;17.80;;;16.30;;
3095;SDS011;1558;42.700;23.360;2022-09-01T01:25:30;18.67;;;16.77;;
3095;SDS011;1558;42.700;23.360;2022-09-01T01:28:04;19.10;;;17.23;;
3095;SDS011;1558;42.700;23.360;2022-09-01T01:30:35;18.53;;;16.73;;
3095;SDS011;1558;42.700;23.360;2022-09-01T01:33:05;18.97;;;17.07;;
3095;SDS011;1558;42.700;23.360;2022-09-01T01:35:33;19.70;;;17.80;;
3095;SDS011;1558;42.700;23.360;2022-09-01T01:38:02;20.27;;;18.47;;
3095;SDS011;1558;42.700;23.360;2022-09-01T01:40:35;20.53;;;18.67;;
3095;SDS011;1558;42.700;23.360;2022-09-01T01:43:04;20.33;;;18.53;;
3095;SDS011;1558;42.700;23.360;2022-09-01T01:45:32;21.90;;;19.90;;
3095;SDS011;1558;42.700;23.360;2022-09-01T01:48:00;22.97;;;20.87;;
3095;SDS011;1558;42.700;23.360;2022-09-01T01:50:32;21.97;;;19.97;;
3095;SDS011;1558;42.700;23.360;2022-09-01T01:53:01;22.77;;;20.77;;
3095;SDS011;1558;42.700;23.360;2022-09-01T01:55:38;22.57;;;20.47;;
3095;SDS011;1558;42.700;23.360;2022-09-01T01:58:07;22.77;;;20.73;;
3095;SDS011;1558;42.700;23.360;2022-09-01T02:00:38;23.13;;;21.00;;
3095;SDS011;1558;42.700;23.360;2022-09-01T02:03:10;25.13;;;20.90;;
3095;SDS011;1558;42.700;23.360;2022-09-01T02:05:42;21.20;;;19.30;;
3095;SDS011;1558;42.700;23.360;2022-09-01T02:08:11;19.70;;;17.93;;
3095;SDS011;1558;42.700;23.360;2022-09-01T02:10:43;20.17;;;18.37;;
3095;SDS011;1558;42.700;23.360;2022-09-01T02:13:13;19.50;;;17.50;;
3095;SDS011;1558;42.700;23.360;2022-09-01T02:15:44;20.77;;;18.23;;
3095;SDS011;1558;42.700;23.360;2022-09-01T02:18:13;21.50;;;19.40;;
3095;SDS011;1558;42.700;23.360;2022-09-01T02:20:44;22.30;;;20.10;;
3095;SDS011;1558;42.700;23.360;2022-09-01T02:23:15;21.90;;;19.90;;
3095;SDS011;1558;42.700;23.360;2022-09-01T02:25:46;21.53;;;19.53;;
3095;SDS011;1558;42.700;23.360;2022-09-01T02:28:35;20.80;;;18.63;;
3095;SDS011;1558;42.700;23.360;2022-09-01T02:31:05;20.47;;;18.73;;
3095;SDS011;1558;42.700;23.360;2022-09-01T02:33:34;21.03;;;18.80;;
3095;SDS011;1558;42.700;23.360;2022-09-01T02:36:05;18.87;;;17.17;;
3095;SDS011;1558;42.700;23.360;2022-09-01T02:38:35;21.73;;;19.43;;
3095;SDS011;1558;42.700;23.360;2022-09-01T02:41:13;22.40;;;19.00;;
3095;SDS011;1558;42.700;23.360;2022-09-01T02:43:48;21.30;;;18.13;;
3095;SDS011;1558;42.700;23.360;2022-09-01T02:46:16;24.33;;;18.53;;
3095;SDS011;1558;42.700;23.360;2022-09-01T02:48:50;20.77;;;18.73;;
3095;SDS011;1558;42.700;23.360;2022-09-01T02:51:20;21.00;;;18.60;;
3095;SDS011;1558;42.700;23.360;2022-09-01T02:53:51;23.07;;;19.97;;
3095;SDS011;1558;42.700;23.360;2022-09-01T02:56:22;20.57;;;18.40;;
3095;SDS011;1558;42.700;23.360;2022-09-01T02:58:53;21.40;;;18.93;;
3095;SDS011;1558;42.700;23.360;2022-09-01T03:01:22;22.20;;;19.80;;
3095;SDS011;1558;42.700;23.360;2022-09-01T03:03:53;21.27;;;19.17;;
3095;SDS011;1558;42.700;23.360;2022-09-01T03:06:23;23.00;;;18.67;;
3095;SDS011;1558;42.700;23.360;2022-09-01T03:08:54;21.87;;;19.57;;
3095;SDS011;1558;42.700;23.360;2022-09-01T03:11:26;20.93;;;18.93;;
3095;SDS011;1558;42.700;23.360;2022-09-01T03:13:55;21.53;;;19.40;;
3095;SDS011;1558;42.700;23.360;2022-09-01T03:16:24;22.57;;;20.03;;
3095;SDS011;1558;42.700;23.360;2022-09-01T03:18:52;23.50;;;20.97;;
3095;SDS011;1558;42.700;23.360;2022-09-01T03:21:20;28.37;;;22.57;;
3095;SDS011;1558;42.700;23.360;2022-09-01T03:23:49;25.07;;;22.33;;
3095;SDS011;1558;42.700;23.360;2022-09-01T03:26:18;25.00;;;22.40;;
3095;SDS011;1558;42.700;23.360;2022-09-01T03:28:49;25.10;;;22.40;;
3095;SDS011;1558;42.700;23.360;2022-09-01T03:31:18;25.90;;;23.33;;
3095;SDS011;1558;42.700;23.360;2022-09-01T03:33:47;27.03;;;24.43;;
3095;SDS011;1558;42.700;23.360;2022-09-01T03:36:16;28.80;;;26.07;;
3095;SDS011;1558;42.700;23.360;2022-09-01T03:38:45;30.13;;;27.00;;
3095;SDS011;1558;42.700;23.360;2022-09-01T03:41:15;29.67;;;26.50;;
3095;SDS011;1558;42.700;23.360;2022-09-01T03:43:44;38.67;;;29.47;;
3095;SDS011;1558;42.700;23.360;2022-09-01T03:46:15;33.87;;;28.13;;
3095;SDS011;1558;42.700;23.360;2022-09-01T03:48:47;34.10;;;28.67;;
3095;SDS011;1558;42.700;23.360;2022-09-01T03:51:17;43.33;;;29.40;;
3095;SDS011;1558;42.700;23.360;2022-09-01T03:53:48;48.23;;;31.30;;
3095;SDS011;1558;42.700;23.360;2022-09-01T03:56:20;37.67;;;29.10;;
3095;SDS011;1558;42.700;23.360;2022-09-01T03:58:51;47.63;;;30.17;;
3095;SDS011;1558;42.700;23.360;2022-09-01T04:01:23;38.37;;;30.03;;
3095;SDS011;1558;42.700;23.360;2022-09-01T04:03:51;47.50;;;30.50;;
3095;SDS011;1558;42.700;23.360;2022-09-01T04:06:20;49.00;;;32.13;;
3095;SDS011;1558;42.700;23.360;2022-09-01T04:08:50;50.63;;;33.30;;
3095;SDS011;1558;42.700;23.360;2022-09-01T04:11:28;58.10;;;34.20;;
3095;SDS011;1558;42.700;23.360;2022-09-01T04:13:57;72.30;;;35.17;;
3095;SDS011;1558;42.700;23.360;2022-09-01T04:16:29;79.30;;;35.20;;
3095;SDS011;1558;42.700;23.360;2022-09-01T04:19:17;58.43;;;36.17;;
3095;SDS011;1558;42.700;23.360;2022-09-01T04:21:51;52.40;;;33.17;;
3095;SDS011;1558;42.700;23.360;2022-09-01T04:24:21;68.97;;;35.83;;
3095;SDS011;1558;42.700;23.360;2022-09-01T04:26:53;58.73;;;35.27;;
3095;SDS011;1558;42.700;23.360;2022-09-01T04:29:24;61.97;;;34.37;;
3095;SDS011;1558;42.700;23.360;2022-09-01T04:31:55;52.30;;;36.10;;
3095;SDS011;1558;42.700;23.360;2022-09-01T04:34:27;65.83;;;36.57;;
3095;SDS011;1558;42.700;23.360;2022-09-01T04:37:05;58.83;;;36.37;;
3095;SDS011;1558;42.700;23.360;2022-09-01T04:39:35;48.40;;;34.07;;
3095;SDS011;1558;42.700;23.360;2022-09-01T04:42:04;52.13;;;34.90;;
3095;SDS011;1558;42.700;23.360;2022-09-01T04:44:35;47.77;;;34.73;;
3095;SDS011;1558;42.700;23.360;2022-09-01T04:47:04;49.00;;;35.20;;
3095;SDS011;1558;42.700;23.360;2022-09-01T04:49:36;42.20;;;31.80;;
3095;SDS011;1558;42.700;23.360;2022-09-01T04:52:04;42.83;;;33.13;;
3095;SDS011;1558;42.700;23.360;2022-09-01T04:54:32;45.57;;;31.23;;
3095;SDS011;1558;42.700;23.360;2022-09-01T04:57:03;40.60;;;31.60;;
3095;SDS011;1558;42.700;23.360;2022-09-01T04:59:32;41.67;;;30.87;;
3095;SDS011;1558;42.700;23.360;2022-09-01T05:02:01;38.60;;;30.77;;
3095;SDS011;1558;42.700;23.360;2022-09-01T05:04:36;43.37;;;33.97;;
3095;SDS011;1558;42.700;23.360;2022-09-01T05:07:11;41.10;;;32.20;;
3095;SDS011;1558;42.700;23.360;2022-09-01T05:09:41;37.40;;;30.67;;
3095;SDS011;1558;42.700;23.360;2022-09-01T05:12:11;39.40;;;33.10;;
3095;SDS011;1558;42.700;23.360;2022-09-01T05:14:42;41.83;;;32.57;;
3095;SDS011;1558;42.700;23.360;2022-09-01T05:17:13;40.30;;;31.57;;
3095;SDS011;1558;42.700;23.360;2022-09-01T05:19:44;34.57;;;30.87;;
3095;SDS011;1558;42.700;23.360;2022-09-01T05:22:16;37.00;;;31.37;;
3095;SDS011;1558;42.700;23.360;2022-09-01T05:24:47;34.80;;;29.90;;
3095;SDS011;1558;42.700;23.360;2022-09-01T05:27:20;33.50;;;28.63;;
3095;SDS011;1558;42.700;23.360;2022-09-01T05:29:49;35.20;;;29.77;;
3095;SDS011;1558;42.700;23.360;2022-09-01T05:32:19;33.17;;;29.57;;
3095;SDS011;1558;42.700;23.360;2022-09-01T05:34:52;35.23;;;31.37;;
3095;SDS011;1558;42.700;23.360;2022-09-01T05:37:20;33.43;;;29.80;;
3095;SDS011;1558;42.700;23.360;2022-09-01T05:39:48;37.13;;;30.37;;
3095;SDS011;1558;42.700;23.360;2022-09-01T05:42:17;36.53;;;31.60;;
3095;SDS011;1558;42.700;23.360;2022-09-01T05:44:45;41.03;;;33.37;;
3095;SDS011;1558;42.700;23.360;2022-09-01T05:47:18;41.27;;;33.43;;
3095;SDS011;1558;42.700;23.360;2022-09-01T05:49:47;43.77;;;35.90;;
3095;SDS011;1558;42.700;23.360;2022-09-01T05:52:17;38.63;;;32.93;;
3095;SDS011;1558;42.700;23.360;2022-09-01T05:54:50;48.43;;;35.20;;
3095;SDS011;1558;42.700;23.360;2022-09-01T05:57:20;43.80;;;35.37;;
3095;SDS011;1558;42.700;23.360;2022-09-01T06:00:00;46.10;;;34.40;;
3095;SDS011;1558;42.700;23.360;2022-09-01T06:02:36;47.73;;;35.03;;
3095;SDS011;1558;42.700;23.360;2022-09-01T06:05:05;38.23;;;29.57;;
3095;SDS011;1558;42.700;23.360;2022-09-01T06:07:35;37.10;;;29.87;;
3095;SDS011;1558;42.700;23.360;2022-09-01T06:10:06;42.30;;;33.33;;
3095;SDS011;1558;42.700;23.360;2022-09-01T06:12:34;43.70;;;32.37;;
3095;SDS011;1558;42.700;23.360;2022-09-01T06:15:03;41.13;;;31.97;;
3095;SDS011;1558;42.700;23.360;2022-09-01T06:17:41;45.40;;;32.63;;
3095;SDS011;1558;42.700;23.360;2022-09-01T06:20:13;41.50;;;30.70;;
3095;SDS011;1558;42.700;23.360;2022-09-01T06:22:45;37.73;;;29.33;;
3095;SDS011;1558;42.700;23.360;2022-09-01T06:25:14;39.80;;;29.73;;
3095;SDS011;1558;42.700;23.360;2022-09-01T06:27:44;35.47;;;28.70;;
3095;SDS011;1558;42.700;23.360;2022-09-01T06:30:14;34.93;;;30.10;;
3095;SDS011;1558;42.700;23.360;2022-09-01T06:32:49;39.63;;;31.60;;
3095;SDS011;1558;42.700;23.360;2022-09-01T06:35:18;43.97;;;33.47;;
3095;SDS011;1558;42.700;23.360;2022-09-01T06:37:50;47.57;;;32.07;;
3095;SDS011;1558;42.700;23.360;2022-09-01T06:40:18;36.90;;;31.13;;
3095;SDS011;1558;42.700;23.360;2022-09-01T06:42:47;38.42;;;29.35;;
3095;SDS011;1558;42.700;23.360;2022-09-01T06:45:18;32.28;;;27.08;;
3095;SDS011;1558;42.700;23.360;2022-09-01T06:47:48;31.42;;;28.02;;
3095;SDS011;1558;42.700;23.360;2022-09-01T06:50:25;31.40;;;28.00;;
3095;SDS011;1558;42.700;23.360;2022-09-01T06:53:16;34.45;;;28.50;;
3095;SDS011;1558;42.700;23.360;2022-09-01T06:56:04;29.85;;;26.30;;
3095;SDS011;1558;42.700;23.360;2022-09-01T06:58:33;32.88;;;27.70;;
3095;SDS011;1558;42.700;23.360;2022-09-01T07:01:04;29.05;;;25.90;;
3095;SDS011;1558;42.700;23.360;2022-09-01T07:03:33;28.83;;;25.88;;
3095;SDS011;1558;42.700;23.360;2022-09-01T07:06:03;34.17;;;30.25;;
3095;SDS011;1558;42.700;23.360;2022-09-01T07:08:36;34.00;;;28.95;;
3095;SDS011;1558;42.700;23.360;2022-09-01T07:11:26;30.55;;;27.55;;
3095;SDS011;1558;42.700;23.360;2022-09-01T07:14:16;28.08;;;25.33;;
3095;SDS011;1558;42.700;23.360;2022-09-01T07:16:44;30.15;;;27.17;;
3095;SDS011;1558;42.700;23.360;2022-09-01T07:19:18;28.52;;;25.52;;
3095;SDS011;1558;42.700;23.360;2022-09-01T07:21:46;29.33;;;26.52;;
3095;SDS011;1558;42.700;23.360;2022-09-01T07:24:34;29.67;;;26.77;;
3095;SDS011;1558;42.700;23.360;2022-09-01T07:27:05;30.15;;;27.27;;
3095;SDS011;1558;42.700;23.360;2022-09-01T07:29:36;29.45;;;26.75;;
3095;SDS011;1558;42.700;23.360;2022-09-01T07:32:06;29.02;;;26.42;;
3095;SDS011;1558;42.700;23.360;2022-09-01T07:34:56;30.20;;;27.20;;
3095;SDS011;1558;42.700;23.360;2022-09-01T07:37:26;29.98;;;27.27;;
3095;SDS011;1558;42.700;23.360;2022-09-01T07:40:16;31.33;;;28.52;;
3095;SDS011;1558;42.700;23.360;2022-09-01T07:43:06;31.63;;;28.63;;
3095;SDS011;1558;42.700;23.360;2022-09-01T07:45:35;32.35;;;28.90;;
3095;SDS011;1558;42.700;23.360;2022-09-01T07:48:12;30.48;;;27.77;;
3095;SDS011;1558;42.700;23.360;2022-09-01T07:51:10;32.20;;;29.20;;
3095;SDS011;1558;42.700;23.360;2022-09-01T07:53:59;32.95;;;29.70;;
3095;SDS011;1558;42.700;23.360;2022-09-01T07:56:29;34.58;;;30.92;;
3095;SDS011;1558;42.700;23.360;2022-09-01T07:59:01;32.92;;;29.65;;
3095;SDS011;1558;42.700;23.360;2022-09-01T08:01:29;31.45;;;28.58;;
3095;SDS011;1558;42.700;23.360;2022-09-01T08:03:58;31.95;;;28.90;;
3095;SDS011;1558;42.700;23.360;2022-09-01T08:06:28;32.70;;;29.52;;
3095;SDS011;1558;42.700;23.360;2022-09-01T08:09:04;34.92;;;31.40;;
3095;SDS011;1558;42.700;23.360;2022-09-01T08:11:38;33.58;;;30.27;;
3095;SDS011;1558;42.700;23.360;2022-09-01T08:14:26;31.88;;;28.33;;
3095;SDS011;1558;42.700;23.360;2022-09-01T08:16:59;30.38;;;27.23;;
3095;SDS011;1558;42.700;23.360;2022-09-01T08:19:42;34.33;;;28.88;;
3095;SDS011;1558;42.700;23.360;2022-09-01T08:22:12;31.05;;;28.08;;
3095;SDS011;1558;42.700;23.360;2022-09-01T08:24:40;29.70;;;26.92;;
3095;SDS011;1558;42.700;23.360;2022-09-01T08:27:10;32.92;;;29.83;;
3095;SDS011;1558;42.700;23.360;2022-09-01T08:29:39;31.27;;;28.15;;
3095;SDS011;1558;42.700;23.360;2022-09-01T08:32:07;30.20;;;27.35;;
3095;SDS011;1558;42.700;23.360;2022-09-01T08:34:36;30.20;;;27.10;;
3095;SDS011;1558;42.700;23.360;2022-09-01T08:37:05;31.20;;;28.13;;
3095;SDS011;1558;42.700;23.360;2022-09-01T08:39:33;29.83;;;27.05;;
3095;SDS011;1558;42.700;23.360;2022-09-01T08:42:02;29.48;;;26.67;;
3095;SDS011;1558;42.700;23.360;2022-09-01T08:44:40;28.30;;;25.58;;
3095;SDS011;1558;42.700;23.360;2022-09-01T08:47:16;29.77;;;26.95;;
3095;SDS011;1558;42.700;23.360;2022-09-01T08:50:05;27.17;;;24.55;;
3095;SDS011;1558;42.700;23.360;2022-09-01T08:52:35;30.65;;;27.65;;
3095;SDS011;1558;42.700;23.360;2022-09-01T08:55:08;29.73;;;26.55;;
3095;SDS011;1558;42.700;23.360;2022-09-01T08:57:43;29.17;;;26.40;;
3095;SDS011;1558;42.700;23.360;2022-09-01T09:00:15;27.58;;;24.83;;
3095;SDS011;1558;42.700;23.360;2022-09-01T09:02:50;28.75;;;25.83;;
3095;SDS011;1558;42.700;23.360;2022-09-01T09:05:42;29.25;;;26.50;;
3095;SDS011;1558;42.700;23.360;2022-09-01T09:08:33;25.65;;;23.45;;
3095;SDS011;1558;42.700;23.360;2022-09-01T09:11:16;25.70;;;23.30;;
3095;SDS011;1558;42.700;23.360;2022-09-01T09:14:00;23.15;;;20.98;;
3095;SDS011;1558;42.700;23.360;2022-09-01T09:16:39;21.98;;;19.63;;
3095;SDS011;1558;42.700;23.360;2022-09-01T09:19:10;18.85;;;17.20;;
3095;SDS011;1558;42.700;23.360;2022-09-01T09:21:51;21.25;;;17.15;;
3095;SDS011;1558;42.700;23.360;2022-09-01T09:24:22;17.65;;;16.05;;
3095;SDS011;1558;42.700;23.360;2022-09-01T09:27:04;17.80;;;16.40;;
3095;SDS011;1558;42.700;23.360;2022-09-01T09:29:36;17.52;;;15.90;;
3095;SDS011;1558;42.700;23.360;2022-09-01T09:32:06;16.42;;;15.07;;
3095;SDS011;1558;42.700;23.360;2022-09-01T09:34:55;17.52;;;15.73;;
3095;SDS011;1558;42.700;23.360;2022-09-01T09:37:26;17.45;;;15.85;;
3095;SDS011;1558;42.700;23.360;2022-09-01T09:40:09;18.45;;;16.52;;
3095;SDS011;1558;42.700;23.360;2022-09-01T09:42:41;17.25;;;15.55;;
3095;SDS011;1558;42.700;23.360;2022-09-01T09:45:27;17.42;;;15.95;;
3095;SDS011;1558;42.700;23.360;2022-09-01T09:48:03;15.82;;;14.57;;
3095;SDS011;1558;42.700;23.360;2022-09-01T09:50:36;17.10;;;15.48;;
3095;SDS011;1558;42.700;23.360;2022-09-01T09:53:12;16.40;;;14.80;;
3095;SDS011;1558;42.700;23.360;2022-09-01T09:55:53;16.25;;;14.70;;
3095;SDS011;1558;42.700;23.360;2022-09-01T09:58:25;15.05;;;13.85;;
3095;SDS011;1558;42.700;23.360;2022-09-01T10:01:01;15.13;;;13.75;;
3095;SDS011;1558;42.700;23.360;2022-09-01T10:03:38;13.93;;;12.52;;
3095;SDS011;1558;42.700;23.360;2022-09-01T10:06:12;14.43;;;13.15;;
3095;SDS011;1558;42.700;23.360;2022-09-01T10:08:44;14.05;;;12.65;;
3095;SDS011;1558;42.700;23.360;2022-09-01T10:14:01;14.52;;;13.15;;
3095;SDS011;1558;42.700;23.360;2022-09-01T10:16:33;14.27;;;13.15;;
3095;SDS011;1558;42.700;23.360;2022-09-01T10:19:05;13.80;;;12.70;;
3095;SDS011;1558;42.700;23.360;2022-09-01T10:21:38;14.65;;;13.55;;
3095;SDS011;1558;42.700;23.360;2022-09-01T10:24:10;14.55;;;13.23;;
3095;SDS011;1558;42.700;23.360;2022-09-01T10:26:52;16.13;;;14.73;;
3095;SDS011;1558;42.700;23.360;2022-09-01T10:29:24;13.55;;;12.55;;
3095;SDS011;1558;42.700;23.360;2022-09-01T10:32:00;14.07;;;13.05;;
3095;SDS011;1558;42.700;23.360;2022-09-01T10:34:54;14.10;;;12.90;;
3095;SDS011;1558;42.700;23.360;2022-09-01T10:37:25;13.20;;;11.90;;
3095;SDS011;1558;42.700;23.360;2022-09-01T10:40:13;13.85;;;12.48;;
3095;SDS011;1558;42.700;23.360;2022-09-01T10:42:47;13.35;;;12.18;;
3095;SDS011;1558;42.700;23.360;2022-09-01T10:45:31;13.40;;;12.07;;
3095;SDS011;1558;42.700;23.360;2022-09-01T10:57:30;14.27;;;12.98;;
3095;SDS011;1558;42.700;23.360;2022-09-01T11:09:38;14.52;;;13.13;;
3095;SDS011;1558;42.700;23.360;2022-09-01T11:12:12;12.23;;;11.27;;
3095;SDS011;1558;42.700;23.360;2022-09-01T11:15:00;12.20;;;11.13;;
3095;SDS011;1558;42.700;23.360;2022-09-01T11:17:33;13.15;;;12.05;;
3095;SDS011;1558;42.700;23.360;2022-09-01T11:20:05;11.77;;;10.75;;
3095;SDS011;1558;42.700;23.360;2022-09-01T11:22:36;11.75;;;10.75;;
3095;SDS011;1558;42.700;23.360;2022-09-01T11:34:09;12.00;;;11.00;;
3095;SDS011;1558;42.700;23.360;2022-09-01T11:36:53;11.55;;;10.65;;
3095;SDS011;1558;42.700;23.360;2022-09-01T11:42:18;11.55;;;10.55;;
3095;SDS011;1558;42.700;23.360;2022-09-01T11:44:50;11.13;;;10.20;;
3095;SDS011;1558;42.700;23.360;2022-09-01T11:47:25;11.70;;;10.70;;
3095;SDS011;1558;42.700;23.360;2022-09-01T11:49:56;10.88;;;10.15;;
3095;SDS011;1558;42.700;23.360;2022-09-01T11:52:26;11.65;;;10.65;;
3095;SDS011;1558;42.700;23.360;2022-09-01T11:54:57;12.85;;;11.60;;
3095;SDS011;1558;42.700;23.360;2022-09-01T11:57:27;13.63;;;12.20;;
3095;SDS011;1558;42.700;23.360;2022-09-01T11:59:58;13.23;;;11.82;;
3095;SDS011;1558;42.700;23.360;2022-09-01T12:02:30;10.18;;;9.25;;
3095;SDS011;1558;42.700;23.360;2022-09-01T12:05:02;10.52;;;9.73;;
3095;SDS011;1558;42.700;23.360;2022-09-01T12:07:49;11.88;;;10.75;;
3095;SDS011;1558;42.700;23.360;2022-09-01T12:10:19;13.13;;;11.95;;
3095;SDS011;1558;42.700;23.360;2022-09-01T12:12:58;13.13;;;12.02;;
3095;SDS011;1558;42.700;23.360;2022-09-01T12:15:28;13.07;;;11.98;;
3095;SDS011;1558;42.700;23.360;2022-09-01T12:18:09;13.57;;;12.45;;
3095;SDS011;1558;42.700;23.360;2022-09-01T12:20:41;13.90;;;12.60;;
3095;SDS011;1558;42.700;23.360;2022-09-01T12:23:16;14.23;;;13.00;;
3095;SDS011;1558;42.700;23.360;2022-09-01T12:25:49;14.40;;;12.90;;
3095;SDS011;1558;42.700;23.360;2022-09-01T12:28:17;13.75;;;12.75;;
3095;SDS011;1558;42.700;23.360;2022-09-01T12:30:45;13.88;;;12.48;;
3095;SDS011;1558;42.700;23.360;2022-09-01T12:33:16;13.95;;;12.55;;
3095;SDS011;1558;42.700;23.360;2022-09-01T12:35:49;13.93;;;12.63;;
3095;SDS011;1558;42.700;23.360;2022-09-01T12:38:24;14.50;;;13.40;;
3095;SDS011;1558;42.700;23.360;2022-09-01T12:40:56;13.85;;;12.55;;
3095;SDS011;1558;42.700;23.360;2022-09-01T12:43:28;14.98;;;13.68;;
3095;SDS011;1558;42.700;23.360;2022-09-01T12:45:58;15.02;;;13.38;;
3095;SDS011;1558;42.700;23.360;2022-09-01T12:48:31;15.15;;;13.57;;
3095;SDS011;1558;42.700;23.360;2022-09-01T12:51:00;14.73;;;13.55;;
3095;SDS011;1558;42.700;23.360;2022-09-01T12:53:31;15.23;;;12.95;;
3095;SDS011;1558;42.700;23.360;2022-09-01T12:56:03;14.15;;;12.82;;
3095;SDS011;1558;42.700;23.360;2022-09-01T12:58:44;15.57;;;13.82;;
3095;SDS011;1558;42.700;23.360;2022-09-01T13:01:26;13.38;;;12.10;;
3095;SDS011;1558;42.700;23.360;2022-09-01T13:06:59;12.93;;;11.63;;
3095;SDS011;1558;42.700;23.360;2022-09-01T13:09:29;13.30;;;12.00;;
3095;SDS011;1558;42.700;23.360;2022-09-01T13:12:10;14.40;;;12.52;;
3095;SDS011;1558;42.700;23.360;2022-09-01T13:14:42;16.67;;;14.73;;
3095;SDS011;1558;42.700;23.360;2022-09-01T13:17:10;14.63;;;13.13;;
3095;SDS011;1558;42.700;23.360;2022-09-01T13:19:41;14.63;;;12.07;;
3095;SDS011;1558;42.700;23.360;2022-09-01T13:22:09;13.18;;;12.27;;
3095;SDS011;1558;42.700;23.360;2022-09-01T13:24:37;14.98;;;13.50;;
3095;SDS011;1558;42.700;23.360;2022-09-01T13:27:05;14.15;;;12.65;;
3095;SDS011;1558;42.700;23.360;2022-09-01T13:29:49;13.52;;;12.38;;
3095;SDS011;1558;42.700;23.360;2022-09-01T13:32:18;13.27;;;12.10;;
3095;SDS011;1558;42.700;23.360;2022-09-01T13:34:49;14.63;;;12.77;;
3095;SDS011;1558;42.700;23.360;2022-09-01T13:37:19;12.20;;;11.07;;
3095;SDS011;1558;42.700;23.360;2022-09-01T13:39:48;12.80;;;11.45;;
3095;SDS011;1558;42.700;23.360;2022-09-01T13:42:16;13.18;;;11.98;;
3095;SDS011;1558;42.700;23.360;2022-09-01T13:44:44;12.95;;;11.85;;
3095;SDS011;1558;42.700;23.360;2022-09-01T13:47:15;13.40;;;11.98;;
3095;SDS011;1558;42.700;23.360;2022-09-01T13:49:59;13.02;;;11.93;;
3095;SDS011;1558;42.700;23.360;2022-09-01T13:52:34;11.75;;;10.93;;
3095;SDS011;1558;42.700;23.360;2022-09-01T13:55:02;14.23;;;11.88;;
3095;SDS011;1558;42.700;23.360;2022-09-01T13:57:31;12.85;;;11.52;;
3095;SDS011;1558;42.700;23.360;2022-09-01T14:00:03;15.65;;;11.90;;
3095;SDS011;1558;42.700;23.360;2022-09-01T14:02:33;14.68;;;13.27;;
3095;SDS011;1558;42.700;23.360;2022-09-01T14:05:03;14.68;;;13.02;;
3095;SDS011;1558;42.700;23.360;2022-09-01T14:07:32;14.85;;;13.63;;
3095;SDS011;1558;42.700;23.360;2022-09-01T14:10:00;13.93;;;12.50;;
3095;SDS011;1558;42.700;23.360;2022-09-01T14:12:28;14.82;;;13.43;;
3095;SDS011;1558;42.700;23.360;2022-09-01T14:14:57;14.45;;;13.15;;
3095;SDS011;1558;42.700;23.360;2022-09-01T14:17:45;14.05;;;12.85;;
3095;SDS011;1558;42.700;23.360;2022-09-01T14:20:16;14.25;;;12.98;;
3095;SDS011;1558;42.700;23.360;2022-09-01T14:22:46;15.38;;;13.98;;
3095;SDS011;1558;42.700;23.360;2022-09-01T14:25:15;14.68;;;13.40;;
3095;SDS011;1558;42.700;23.360;2022-09-01T14:27:44;14.60;;;13.43;;
3095;SDS011;1558;42.700;23.360;2022-09-01T14:30:14;14.07;;;12.98;;
3095;SDS011;1558;42.700;23.360;2022-09-01T14:32:45;14.48;;;13.27;;
3095;SDS011;1558;42.700;23.360;2022-09-01T14:35:14;14.85;;;13.30;;
3095;SDS011;1558;42.700;23.360;2022-09-01T14:37:44;15.25;;;13.85;;
3095;SDS011;1558;42.700;23.360;2022-09-01T14:40:13;15.20;;;13.80;;
3095;SDS011;1558;42.700;23.360;2022-09-01T14:42:44;15.73;;;14.02;;
3095;SDS011;1558;42.700;23.360;2022-09-01T14:45:14;15.38;;;14.05;;
3095;SDS011;1558;42.700;23.360;2022-09-01T14:47:44;14.68;;;13.23;;
3095;SDS011;1558;42.700;23.360;2022-09-01T14:50:12;16.52;;;14.98;;
3095;SDS011;1558;42.700;23.360;2022-09-01T14:52:50;16.85;;;15.02;;
3095;SDS011;1558;42.700;23.360;2022-09-01T14:55:20;16.10;;;14.70;;
3095;SDS011;1558;42.700;23.360;2022-09-01T14:57:49;15.27;;;13.98;;
3095;SDS011;1558;42.700;23.360;2022-09-01T15:00:17;16.65;;;15.05;;
3095;SDS011;1558;42.700;23.360;2022-09-01T15:02:46;16.45;;;14.95;;
3095;SDS011;1558;42.700;23.360;2022-09-01T15:05:14;16.45;;;14.77;;
3095;SDS011;1558;42.700;23.360;2022-09-01T15:07:42;16.90;;;15.40;;
3095;SDS011;1558;42.700;23.360;2022-09-01T15:10:13;16.40;;;15.00;;
3095;SDS011;1558;42.700;23.360;2022-09-01T15:12:50;17.95;;;16.02;;
3095;SDS011;1558;42.700;23.360;2022-09-01T15:15:19;16.92;;;15.02;;
3095;SDS011;1558;42.700;23.360;2022-09-01T15:17:47;15.50;;;13.82;;
3095;SDS011;1558;42.700;23.360;2022-09-01T15:20:15;15.65;;;14.45;;
3095;SDS011;1558;42.700;23.360;2022-09-01T15:23:01;14.88;;;13.57;;
3095;SDS011;1558;42.700;23.360;2022-09-01T15:25:31;16.15;;;14.52;;
3095;SDS011;1558;42.700;23.360;2022-09-01T15:27:59;15.95;;;14.43;;
3095;SDS011;1558;42.700;23.360;2022-09-01T15:30:27;13.80;;;12.40;;
3095;SDS011;1558;42.700;23.360;2022-09-01T15:32:55;14.80;;;12.52;;
3095;SDS011;1558;42.700;23.360;2022-09-01T15:35:23;13.90;;;12.38;;
3095;SDS011;1558;42.700;23.360;2022-09-01T15:37:51;13.60;;;12.38;;
3095;SDS011;1558;42.700;23.360;2022-09-01T15:40:19;15.10;;;13.00;;
3095;SDS011;1558;42.700;23.360;2022-09-01T15:42:48;14.00;;;12.55;;